sensor_id;sensor_type;location;lat;lon;timestamp;pressure;altitude;pressure_sealevel;temperature
45850;BMP180;10739;52.198;20.908;2024-01-11T00:01:18;101123.00;;;-4.20
45850;BMP180;10739;52.198;20.908;2024-01-11T00:03:44;101104.00;;;-4.30
45850;BMP180;10739;52.198;20.908;2024-01-11T00:06:11;101107.00;;;-4.10
45850;BMP180;10739;52.198;20.908;2024-01-11T00:08:37;101099.00;;;-3.90
45850;BMP180;10739;52.198;20.908;2024-01-11T00:11:04;101087.00;;;-3.60
45850;BMP180;10739;52.198;20.908;2024-01-11T00:13:30;101086.00;;;-3.70
45850;BMP180;10739;52.198;20.908;2024-01-11T00:15:56;101070.00;;;-3.60
45850;BMP180;10739;52.198;20.908;2024-01-11T00:18:22;101077.00;;;-4.10
45850;BMP180;10739;52.198;20.908;2024-01-11T00:20:49;101091.00;;;-4.10
45850;BMP180;10739;52.198;20.908;2024-01-11T00:23:15;101078.00;;;-4.10
45850;BMP180;10739;52.198;20.908;2024-01-11T00:25:41;101079.00;;;-4.10
45850;BMP180;10739;52.198;20.908;2024-01-11T00:28:08;101082.00;;;-4.00
45850;BMP180;10739;52.198;20.908;2024-01-11T00:30:34;101080.00;;;-4.00
45850;BMP180;10739;52.198;20.908;2024-01-11T00:33:00;101088.00;;;-4.00
45850;BMP180;10739;52.198;20.908;2024-01-11T00:35:26;101079.00;;;-3.90
45850;BMP180;10739;52.198;20.908;2024-01-11T00:37:53;101084.00;;;-4.30
45850;BMP180;10739;52.198;20.908;2024-01-11T00:40:19;101094.00;;;-3.70
45850;BMP180;10739;52.198;20.908;2024-01-11T00:42:45;101104.00;;;-3.90
45850;BMP180;10739;52.198;20.908;2024-01-11T00:45:12;101087.00;;;-3.60
45850;BMP180;10739;52.198;20.908;2024-01-11T00:47:38;101077.00;;;-3.90
45850;BMP180;10739;52.198;20.908;2024-01-11T00:50:05;101072.00;;;-3.90
45850;BMP180;10739;52.198;20.908;2024-01-11T00:52:31;101080.00;;;-3.90
45850;BMP180;10739;52.198;20.908;2024-01-11T00:54:58;101096.00;;;-3.70
45850;BMP180;10739;52.198;20.908;2024-01-11T00:57:24;101107.00;;;-3.70
45850;BMP180;10739;52.198;20.908;2024-01-11T00:59:51;101107.00;;;-3.40
45850;BMP180;10739;52.198;20.908;2024-01-11T01:02:19;101086.00;;;-3.70
45850;BMP180;10739;52.198;20.908;2024-01-11T01:04:46;101089.00;;;-3.50
45850;BMP180;10739;52.198;20.908;2024-01-11T01:07:12;101066.00;;;-3.90
45850;BMP180;10739;52.198;20.908;2024-01-11T01:09:38;101067.00;;;-3.50
45850;BMP180;10739;52.198;20.908;2024-01-11T01:12:06;101058.00;;;-3.60
45850;BMP180;10739;52.198;20.908;2024-01-11T01:14:32;101076.00;;;-3.70
45850;BMP180;10739;52.198;20.908;2024-01-11T01:16:59;101085.00;;;-3.90
45850;BMP180;10739;52.198;20.908;2024-01-11T01:19:25;101075.00;;;-4.00
45850;BMP180;10739;52.198;20.908;2024-01-11T01:21:52;101083.00;;;-3.90
45850;BMP180;10739;52.198;20.908;2024-01-11T01:24:18;101074.00;;;-3.60
45850;BMP180;10739;52.198;20.908;2024-01-11T01:26:45;101085.00;;;-4.00
45850;BMP180;10739;52.198;20.908;2024-01-11T01:29:11;101082.00;;;-4.00
45850;BMP180;10739;52.198;20.908;2024-01-11T01:31:38;101077.00;;;-3.70
45850;BMP180;10739;52.198;20.908;2024-01-11T01:34:04;101076.00;;;-4.10
45850;BMP180;10739;52.198;20.908;2024-01-11T01:36:31;101079.00;;;-3.90
45850;BMP180;10739;52.198;20.908;2024-01-11T01:38:57;101089.00;;;-3.90
45850;BMP180;10739;52.198;20.908;2024-01-11T01:41:23;101085.00;;;-3.70
45850;BMP180;10739;52.198;20.908;2024-01-11T01:43:50;101077.00;;;-4.20
45850;BMP180;10739;52.198;20.908;2024-01-11T01:46:23;101071.00;;;-4.20
45850;BMP180;10739;52.198;20.908;2024-01-11T01:48:57;101068.00;;;-4.10
45850;BMP180;10739;52.198;20.908;2024-01-11T01:51:28;101075.00;;;-3.80
45850;BMP180;10739;52.198;20.908;2024-01-11T01:53:56;101069.00;;;-3.90
45850;BMP180;10739;52.198;20.908;2024-01-11T01:56:23;101051.00;;;-4.00
45850;BMP180;10739;52.198;20.908;2024-01-11T01:58:52;101061.00;;;-3.70
45850;BMP180;10739;52.198;20.908;2024-01-11T02:01:20;101048.00;;;-3.80
45850;BMP180;10739;52.198;20.908;2024-01-11T02:03:50;101075.00;;;-4.00
45850;BMP180;10739;52.198;20.908;2024-01-11T02:06:22;101076.00;;;-3.90
45850;BMP180;10739;52.198;20.908;2024-01-11T02:08:51;101057.00;;;-4.10
45850;BMP180;10739;52.198;20.908;2024-01-11T02:11:20;101053.00;;;-3.90
45850;BMP180;10739;52.198;20.908;2024-01-11T02:13:47;101059.00;;;-3.90
45850;BMP180;10739;52.198;20.908;2024-01-11T02:16:17;101053.00;;;-3.60
45850;BMP180;10739;52.198;20.908;2024-01-11T02:18:43;101057.00;;;-3.60
45850;BMP180;10739;52.198;20.908;2024-01-11T02:21:14;101027.00;;;-3.80
45850;BMP180;10739;52.198;20.908;2024-01-11T02:24:06;101051.00;;;-3.90
45850;BMP180;10739;52.198;20.908;2024-01-11T02:26:33;101054.00;;;-3.90
45850;BMP180;10739;52.198;20.908;2024-01-11T02:29:00;101053.00;;;-3.50
45850;BMP180;10739;52.198;20.908;2024-01-11T02:31:26;101038.00;;;-3.60
45850;BMP180;10739;52.198;20.908;2024-01-11T02:33:53;101041.00;;;-3.70
45850;BMP180;10739;52.198;20.908;2024-01-11T02:36:24;101056.00;;;-4.00
45850;BMP180;10739;52.198;20.908;2024-01-11T02:38:52;101036.00;;;-3.60
45850;BMP180;10739;52.198;20.908;2024-01-11T02:41:20;101041.00;;;-3.30
45850;BMP180;10739;52.198;20.908;2024-01-11T02:43:48;101030.00;;;-3.50
45850;BMP180;10739;52.198;20.908;2024-01-11T02:46:17;101021.00;;;-3.90
45850;BMP180;10739;52.198;20.908;2024-01-11T02:48:43;101035.00;;;-3.60
45850;BMP180;10739;52.198;20.908;2024-01-11T02:51:10;101012.00;;;-3.90
45850;BMP180;10739;52.198;20.908;2024-01-11T02:53:36;101035.00;;;-3.90
45850;BMP180;10739;52.198;20.908;2024-01-11T02:56:03;101035.00;;;-4.00
45850;BMP180;10739;52.198;20.908;2024-01-11T02:58:29;101028.00;;;-3.80
45850;BMP180;10739;52.198;20.908;2024-01-11T03:00:55;101035.00;;;-3.70
45850;BMP180;10739;52.198;20.908;2024-01-11T03:03:22;101037.00;;;-4.10
45850;BMP180;10739;52.198;20.908;2024-01-11T03:05:48;101040.00;;;-3.70
45850;BMP180;10739;52.198;20.908;2024-01-11T03:08:14;101035.00;;;-3.60
45850;BMP180;10739;52.198;20.908;2024-01-11T03:10:41;101025.00;;;-4.00
45850;BMP180;10739;52.198;20.908;2024-01-11T03:13:10;101009.00;;;-3.80
45850;BMP180;10739;52.198;20.908;2024-01-11T03:15:37;101012.00;;;-3.70
45850;BMP180;10739;52.198;20.908;2024-01-11T03:18:04;101020.00;;;-3.70
45850;BMP180;10739;52.198;20.908;2024-01-11T03:20:30;101005.00;;;-3.80
45850;BMP180;10739;52.198;20.908;2024-01-11T03:22:57;101005.00;;;-3.70
45850;BMP180;10739;52.198;20.908;2024-01-11T03:25:23;101010.00;;;-3.80
45850;BMP180;10739;52.198;20.908;2024-01-11T03:27:49;101029.00;;;-3.40
45850;BMP180;10739;52.198;20.908;2024-01-11T03:30:16;101004.00;;;-3.80
45850;BMP180;10739;52.198;20.908;2024-01-11T03:32:42;100995.00;;;-3.80
45850;BMP180;10739;52.198;20.908;2024-01-11T03:35:09;100993.00;;;-3.50
45850;BMP180;10739;52.198;20.908;2024-01-11T03:37:36;100985.00;;;-3.50
45850;BMP180;10739;52.198;20.908;2024-01-11T03:40:03;100966.00;;;-3.40
45850;BMP180;10739;52.198;20.908;2024-01-11T03:42:30;100955.00;;;-3.50
45850;BMP180;10739;52.198;20.908;2024-01-11T03:44:56;100955.00;;;-3.60
45850;BMP180;10739;52.198;20.908;2024-01-11T03:47:23;100946.00;;;-3.50
45850;BMP180;10739;52.198;20.908;2024-01-11T03:49:49;100947.00;;;-4.00
45850;BMP180;10739;52.198;20.908;2024-01-11T03:52:15;100943.00;;;-3.80
45850;BMP180;10739;52.198;20.908;2024-01-11T03:54:42;100934.00;;;-3.70
45850;BMP180;10739;52.198;20.908;2024-01-11T03:57:08;100923.00;;;-3.50
45850;BMP180;10739;52.198;20.908;2024-01-11T03:59:34;100905.00;;;-3.60
45850;BMP180;10739;52.198;20.908;2024-01-11T04:02:01;100917.00;;;-3.60
45850;BMP180;10739;52.198;20.908;2024-01-11T04:04:27;100916.00;;;-3.40
45850;BMP180;10739;52.198;20.908;2024-01-11T04:06:53;100921.00;;;-3.80
45850;BMP180;10739;52.198;20.908;2024-01-11T04:09:20;100940.00;;;-3.40
45850;BMP180;10739;52.198;20.908;2024-01-11T04:11:47;100945.00;;;-3.70
45850;BMP180;10739;52.198;20.908;2024-01-11T04:14:13;100921.00;;;-3.70
45850;BMP180;10739;52.198;20.908;2024-01-11T04:16:43;100933.00;;;-3.70
45850;BMP180;10739;52.198;20.908;2024-01-11T04:19:10;100927.00;;;-3.50
45850;BMP180;10739;52.198;20.908;2024-01-11T04:21:37;100924.00;;;-4.10
45850;BMP180;10739;52.198;20.908;2024-01-11T04:24:05;100922.00;;;-3.60
45850;BMP180;10739;52.198;20.908;2024-01-11T04:26:32;100937.00;;;-3.40
45850;BMP180;10739;52.198;20.908;2024-01-11T04:28:59;100926.00;;;-3.80
45850;BMP180;10739;52.198;20.908;2024-01-11T04:31:26;100929.00;;;-3.90
45850;BMP180;10739;52.198;20.908;2024-01-11T04:33:53;100933.00;;;-3.50
45850;BMP180;10739;52.198;20.908;2024-01-11T04:36:19;100927.00;;;-3.70
45850;BMP180;10739;52.198;20.908;2024-01-11T04:38:45;100928.00;;;-3.50
45850;BMP180;10739;52.198;20.908;2024-01-11T04:41:14;100924.00;;;-3.70
45850;BMP180;10739;52.198;20.908;2024-01-11T04:43:42;100930.00;;;-3.50
45850;BMP180;10739;52.198;20.908;2024-01-11T04:46:22;100935.00;;;-3.50
45850;BMP180;10739;52.198;20.908;2024-01-11T04:48:49;100933.00;;;-3.80
45850;BMP180;10739;52.198;20.908;2024-01-11T04:51:17;100939.00;;;-3.40
45850;BMP180;10739;52.198;20.908;2024-01-11T04:53:45;100931.00;;;-3.50
45850;BMP180;10739;52.198;20.908;2024-01-11T04:56:16;100943.00;;;-3.60
45850;BMP180;10739;52.198;20.908;2024-01-11T04:58:44;100938.00;;;-3.80
45850;BMP180;10739;52.198;20.908;2024-01-11T05:01:17;100941.00;;;-3.80
45850;BMP180;10739;52.198;20.908;2024-01-11T05:03:46;100936.00;;;-3.90
45850;BMP180;10739;52.198;20.908;2024-01-11T05:06:20;100935.00;;;-3.60
45850;BMP180;10739;52.198;20.908;2024-01-11T05:08:49;100925.00;;;-3.50
45850;BMP180;10739;52.198;20.908;2024-01-11T05:11:21;100933.00;;;-3.70
45850;BMP180;10739;52.198;20.908;2024-01-11T05:13:49;100922.00;;;-3.50
45850;BMP180;10739;52.198;20.908;2024-01-11T05:18:50;100910.00;;;-3.50
45850;BMP180;10739;52.198;20.908;2024-01-11T05:21:17;100904.00;;;-3.50
45850;BMP180;10739;52.198;20.908;2024-01-11T05:23:43;100905.00;;;-3.40
45850;BMP180;10739;52.198;20.908;2024-01-11T05:26:10;100894.00;;;-3.60
45850;BMP180;10739;52.198;20.908;2024-01-11T05:28:37;100881.00;;;-3.50
45850;BMP180;10739;52.198;20.908;2024-01-11T05:31:12;100871.00;;;-2.90
45850;BMP180;10739;52.198;20.908;2024-01-11T05:33:39;100867.00;;;-2.80
45850;BMP180;10739;52.198;20.908;2024-01-11T05:36:07;100865.00;;;-3.20
45850;BMP180;10739;52.198;20.908;2024-01-11T05:38:34;100869.00;;;-3.20
45850;BMP180;10739;52.198;20.908;2024-01-11T05:41:01;100876.00;;;-3.50
45850;BMP180;10739;52.198;20.908;2024-01-11T05:43:27;100866.00;;;-3.30
45850;BMP180;10739;52.198;20.908;2024-01-11T05:45:54;100876.00;;;-3.10
45850;BMP180;10739;52.198;20.908;2024-01-11T05:48:21;100855.00;;;-3.10
45850;BMP180;10739;52.198;20.908;2024-01-11T05:50:47;100853.00;;;-3.40
45850;BMP180;10739;52.198;20.908;2024-01-11T05:53:13;100854.00;;;-3.00
45850;BMP180;10739;52.198;20.908;2024-01-11T05:55:40;100849.00;;;-3.30
45850;BMP180;10739;52.198;20.908;2024-01-11T05:58:06;100855.00;;;-2.60
45850;BMP180;10739;52.198;20.908;2024-01-11T06:00:33;100837.00;;;-2.80
45850;BMP180;10739;52.198;20.908;2024-01-11T06:02:59;100836.00;;;-2.80
45850;BMP180;10739;52.198;20.908;2024-01-11T06:05:26;100833.00;;;-3.10
45850;BMP180;10739;52.198;20.908;2024-01-11T06:07:52;100829.00;;;-3.00
45850;BMP180;10739;52.198;20.908;2024-01-11T06:10:18;100822.00;;;-2.80
45850;BMP180;10739;52.198;20.908;2024-01-11T06:12:45;100829.00;;;-2.90
45850;BMP180;10739;52.198;20.908;2024-01-11T06:15:11;100814.00;;;-3.10
45850;BMP180;10739;52.198;20.908;2024-01-11T06:17:38;100826.00;;;-3.30
45850;BMP180;10739;52.198;20.908;2024-01-11T06:20:05;100810.00;;;-3.00
45850;BMP180;10739;52.198;20.908;2024-01-11T06:22:31;100818.00;;;-2.90
45850;BMP180;10739;52.198;20.908;2024-01-11T06:24:57;100813.00;;;-2.80
45850;BMP180;10739;52.198;20.908;2024-01-11T06:27:25;100811.00;;;-2.60
45850;BMP180;10739;52.198;20.908;2024-01-11T06:29:51;100814.00;;;-2.50
45850;BMP180;10739;52.198;20.908;2024-01-11T06:32:18;100805.00;;;-2.80
45850;BMP180;10739;52.198;20.908;2024-01-11T06:34:44;100810.00;;;-3.10
45850;BMP180;10739;52.198;20.908;2024-01-11T06:37:12;100800.00;;;-2.70
45850;BMP180;10739;52.198;20.908;2024-01-11T06:39:39;100797.00;;;-2.90
45850;BMP180;10739;52.198;20.908;2024-01-11T06:42:05;100800.00;;;-2.80
45850;BMP180;10739;52.198;20.908;2024-01-11T06:44:31;100797.00;;;-2.70
45850;BMP180;10739;52.198;20.908;2024-01-11T06:46:58;100790.00;;;-2.70
45850;BMP180;10739;52.198;20.908;2024-01-11T06:49:24;100781.00;;;-2.50
45850;BMP180;10739;52.198;20.908;2024-01-11T06:51:50;100785.00;;;-2.60
45850;BMP180;10739;52.198;20.908;2024-01-11T06:54:16;100788.00;;;-2.60
45850;BMP180;10739;52.198;20.908;2024-01-11T06:56:43;100811.00;;;-2.50
45850;BMP180;10739;52.198;20.908;2024-01-11T06:59:10;100794.00;;;-3.10
45850;BMP180;10739;52.198;20.908;2024-01-11T07:01:36;100795.00;;;-2.80
45850;BMP180;10739;52.198;20.908;2024-01-11T07:04:03;100793.00;;;-2.90
45850;BMP180;10739;52.198;20.908;2024-01-11T07:06:29;100786.00;;;-2.60
45850;BMP180;10739;52.198;20.908;2024-01-11T07:08:55;100792.00;;;-2.50
45850;BMP180;10739;52.198;20.908;2024-01-11T07:11:21;100790.00;;;-2.90
45850;BMP180;10739;52.198;20.908;2024-01-11T07:13:48;100793.00;;;-2.90
45850;BMP180;10739;52.198;20.908;2024-01-11T07:16:14;100786.00;;;-3.00
45850;BMP180;10739;52.198;20.908;2024-01-11T07:18:40;100768.00;;;-2.80
45850;BMP180;10739;52.198;20.908;2024-01-11T07:21:07;100769.00;;;-2.90
45850;BMP180;10739;52.198;20.908;2024-01-11T07:23:33;100768.00;;;-3.00
45850;BMP180;10739;52.198;20.908;2024-01-11T07:25:59;100767.00;;;-2.70
45850;BMP180;10739;52.198;20.908;2024-01-11T07:28:26;100774.00;;;-2.90
45850;BMP180;10739;52.198;20.908;2024-01-11T07:30:53;100772.00;;;-2.60
45850;BMP180;10739;52.198;20.908;2024-01-11T07:33:20;100761.00;;;-2.40
45850;BMP180;10739;52.198;20.908;2024-01-11T07:35:47;100785.00;;;-2.60
45850;BMP180;10739;52.198;20.908;2024-01-11T07:38:14;100773.00;;;-2.60
45850;BMP180;10739;52.198;20.908;2024-01-11T07:40:40;100788.00;;;-2.80
45850;BMP180;10739;52.198;20.908;2024-01-11T07:43:07;100758.00;;;-2.70
45850;BMP180;10739;52.198;20.908;2024-01-11T07:45:34;100761.00;;;-2.50
45850;BMP180;10739;52.198;20.908;2024-01-11T07:48:00;100761.00;;;-2.60
45850;BMP180;10739;52.198;20.908;2024-01-11T07:50:30;100751.00;;;-2.70
45850;BMP180;10739;52.198;20.908;2024-01-11T07:52:56;100762.00;;;-2.50
45850;BMP180;10739;52.198;20.908;2024-01-11T07:55:23;100771.00;;;-2.60
45850;BMP180;10739;52.198;20.908;2024-01-11T07:57:50;100787.00;;;-2.60
45850;BMP180;10739;52.198;20.908;2024-01-11T08:00:16;100776.00;;;-2.50
45850;BMP180;10739;52.198;20.908;2024-01-11T08:02:42;100771.00;;;-2.40
45850;BMP180;10739;52.198;20.908;2024-01-11T08:05:09;100777.00;;;-2.30
45850;BMP180;10739;52.198;20.908;2024-01-11T08:07:39;100782.00;;;-2.40
45850;BMP180;10739;52.198;20.908;2024-01-11T08:10:06;100772.00;;;-2.10
45850;BMP180;10739;52.198;20.908;2024-01-11T08:12:32;100772.00;;;-2.00
45850;BMP180;10739;52.198;20.908;2024-01-11T08:14:59;100774.00;;;-2.20
45850;BMP180;10739;52.198;20.908;2024-01-11T08:17:26;100791.00;;;-2.00
45850;BMP180;10739;52.198;20.908;2024-01-11T08:19:52;100782.00;;;-2.10
45850;BMP180;10739;52.198;20.908;2024-01-11T08:22:19;100785.00;;;-2.00
45850;BMP180;10739;52.198;20.908;2024-01-11T08:24:45;100786.00;;;-2.20
45850;BMP180;10739;52.198;20.908;2024-01-11T08:27:13;100782.00;;;-2.00
45850;BMP180;10739;52.198;20.908;2024-01-11T08:29:43;100791.00;;;-2.10
45850;BMP180;10739;52.198;20.908;2024-01-11T08:32:10;100786.00;;;-2.20
45850;BMP180;10739;52.198;20.908;2024-01-11T08:34:36;100797.00;;;-2.00
45850;BMP180;10739;52.198;20.908;2024-01-11T08:37:03;100805.00;;;-2.10
45850;BMP180;10739;52.198;20.908;2024-01-11T08:39:29;100795.00;;;-1.90
45850;BMP180;10739;52.198;20.908;2024-01-11T08:41:55;100796.00;;;-2.00
45850;BMP180;10739;52.198;20.908;2024-01-11T08:44:22;100793.00;;;-2.00
45850;BMP180;10739;52.198;20.908;2024-01-11T08:46:49;100788.00;;;-1.90
45850;BMP180;10739;52.198;20.908;2024-01-11T08:49:15;100798.00;;;-2.00
45850;BMP180;10739;52.198;20.908;2024-01-11T08:51:41;100800.00;;;-2.00
45850;BMP180;10739;52.198;20.908;2024-01-11T08:54:07;100789.00;;;-1.90
45850;BMP180;10739;52.198;20.908;2024-01-11T08:56:35;100790.00;;;-1.70
45850;BMP180;10739;52.198;20.908;2024-01-11T08:59:02;100791.00;;;-1.50
45850;BMP180;10739;52.198;20.908;2024-01-11T09:01:29;100785.00;;;-1.50
45850;BMP180;10739;52.198;20.908;2024-01-11T09:03:55;100782.00;;;-1.90
45850;BMP180;10739;52.198;20.908;2024-01-11T09:06:22;100786.00;;;-1.90
45850;BMP180;10739;52.198;20.908;2024-01-11T09:08:48;100777.00;;;-1.60
45850;BMP180;10739;52.198;20.908;2024-01-11T09:11:17;100775.00;;;-1.90
45850;BMP180;10739;52.198;20.908;2024-01-11T09:13:43;100777.00;;;-1.90
45850;BMP180;10739;52.198;20.908;2024-01-11T09:16:09;100769.00;;;-2.00
45850;BMP180;10739;52.198;20.908;2024-01-11T09:18:35;100776.00;;;-1.60
45850;BMP180;10739;52.198;20.908;2024-01-11T09:21:02;100766.00;;;-1.80
45850;BMP180;10739;52.198;20.908;2024-01-11T09:23:30;100768.00;;;-1.90
45850;BMP180;10739;52.198;20.908;2024-01-11T09:25:56;100758.00;;;-1.90
45850;BMP180;10739;52.198;20.908;2024-01-11T09:28:22;100754.00;;;-1.90
45850;BMP180;10739;52.198;20.908;2024-01-11T09:30:49;100743.00;;;-1.70
45850;BMP180;10739;52.198;20.908;2024-01-11T09:33:15;100734.00;;;-1.70
45850;BMP180;10739;52.198;20.908;2024-01-11T09:35:42;100735.00;;;-1.70
45850;BMP180;10739;52.198;20.908;2024-01-11T09:38:08;100731.00;;;-1.40
45850;BMP180;10739;52.198;20.908;2024-01-11T09:40:35;100723.00;;;-1.70
45850;BMP180;10739;52.198;20.908;2024-01-11T09:43:04;100737.00;;;-1.50
45850;BMP180;10739;52.198;20.908;2024-01-11T09:45:32;100726.00;;;-1.30
45850;BMP180;10739;52.198;20.908;2024-01-11T09:47:59;100720.00;;;-1.40
45850;BMP180;10739;52.198;20.908;2024-01-11T09:50:25;100713.00;;;-1.30
45850;BMP180;10739;52.198;20.908;2024-01-11T09:52:53;100714.00;;;-1.20
45850;BMP180;10739;52.198;20.908;2024-01-11T09:55:19;100715.00;;;-1.20
45850;BMP180;10739;52.198;20.908;2024-01-11T09:57:47;100704.00;;;-1.10
45850;BMP180;10739;52.198;20.908;2024-01-11T10:00:19;100711.00;;;-1.50
45850;BMP180;10739;52.198;20.908;2024-01-11T10:02:46;100715.00;;;-1.00
45850;BMP180;10739;52.198;20.908;2024-01-11T10:05:13;100707.00;;;-1.10
45850;BMP180;10739;52.198;20.908;2024-01-11T10:07:42;100695.00;;;-1.40
45850;BMP180;10739;52.198;20.908;2024-01-11T10:10:09;100692.00;;;-1.30
45850;BMP180;10739;52.198;20.908;2024-01-11T10:12:37;100695.00;;;-1.20
45850;BMP180;10739;52.198;20.908;2024-01-11T10:15:10;100681.00;;;-1.40
45850;BMP180;10739;52.198;20.908;2024-01-11T10:17:42;100692.00;;;-1.10
45850;BMP180;10739;52.198;20.908;2024-01-11T10:20:14;100693.00;;;-1.50
45850;BMP180;10739;52.198;20.908;2024-01-11T10:22:41;100686.00;;;-1.20
45850;BMP180;10739;52.198;20.908;2024-01-11T10:25:16;100690.00;;;-1.30
45850;BMP180;10739;52.198;20.908;2024-01-11T10:27:44;100690.00;;;-0.80
45850;BMP180;10739;52.198;20.908;2024-01-11T10:30:17;100701.00;;;-1.20
45850;BMP180;10739;52.198;20.908;2024-01-11T10:32:44;100700.00;;;-1.10
45850;BMP180;10739;52.198;20.908;2024-01-11T10:35:11;100695.00;;;-1.30
45850;BMP180;10739;52.198;20.908;2024-01-11T10:37:39;100704.00;;;-1.30
45850;BMP180;10739;52.198;20.908;2024-01-11T10:40:08;100714.00;;;-1.10
45850;BMP180;10739;52.198;20.908;2024-01-11T10:42:44;100690.00;;;-1.10
45850;BMP180;10739;52.198;20.908;2024-01-11T10:45:20;100693.00;;;-1.00
45850;BMP180;10739;52.198;20.908;2024-01-11T10:47:53;100696.00;;;-1.10
45850;BMP180;10739;52.198;20.908;2024-01-11T10:50:22;100690.00;;;-1.10
45850;BMP180;10739;52.198;20.908;2024-01-11T10:56:15;100683.00;;;-1.30
45850;BMP180;10739;52.198;20.908;2024-01-11T10:58:45;100686.00;;;-1.10
45850;BMP180;10739;52.198;20.908;2024-01-11T11:01:13;100676.00;;;-1.10
45850;BMP180;10739;52.198;20.908;2024-01-11T11:03:40;100686.00;;;-1.00
45850;BMP180;10739;52.198;20.908;2024-01-11T11:06:11;100677.00;;;-0.90
45850;BMP180;10739;52.198;20.908;2024-01-11T11:08:39;100671.00;;;-0.90
45850;BMP180;10739;52.198;20.908;2024-01-11T11:11:06;100663.00;;;-1.20
45850;BMP180;10739;52.198;20.908;2024-01-11T11:13:33;100651.00;;;-1.10
45850;BMP180;10739;52.198;20.908;2024-01-11T11:16:03;100647.00;;;-1.00
45850;BMP180;10739;52.198;20.908;2024-01-11T11:18:31;100650.00;;;-0.90
45850;BMP180;10739;52.198;20.908;2024-01-11T11:20:58;100652.00;;;-0.80
45850;BMP180;10739;52.198;20.908;2024-01-11T11:23:24;100645.00;;;-1.00
45850;BMP180;10739;52.198;20.908;2024-01-11T11:25:54;100637.00;;;-0.80
45850;BMP180;10739;52.198;20.908;2024-01-11T11:28:23;100638.00;;;-0.70
45850;BMP180;10739;52.198;20.908;2024-01-11T11:30:53;100640.00;;;-0.50
45850;BMP180;10739;52.198;20.908;2024-01-11T11:33:23;100635.00;;;-1.00
45850;BMP180;10739;52.198;20.908;2024-01-11T11:35:53;100636.00;;;-0.70
45850;BMP180;10739;52.198;20.908;2024-01-11T11:38:26;100631.00;;;-0.60
45850;BMP180;10739;52.198;20.908;2024-01-11T11:40:58;100620.00;;;-0.60
45850;BMP180;10739;52.198;20.908;2024-01-11T11:43:27;100622.00;;;-0.30
45850;BMP180;10739;52.198;20.908;2024-01-11T11:45:55;100614.00;;;-0.50
45850;BMP180;10739;52.198;20.908;2024-01-11T11:51:06;100613.00;;;-0.40
45850;BMP180;10739;52.198;20.908;2024-01-11T11:53:42;100601.00;;;-0.30
45850;BMP180;10739;52.198;20.908;2024-01-11T11:56:10;100600.00;;;-0.60
45850;BMP180;10739;52.198;20.908;2024-01-11T11:58:37;100606.00;;;-0.20
45850;BMP180;10739;52.198;20.908;2024-01-11T12:01:04;100604.00;;;-0.60
45850;BMP180;10739;52.198;20.908;2024-01-11T12:03:42;100612.00;;;-0.50
45850;BMP180;10739;52.198;20.908;2024-01-11T12:06:10;100599.00;;;-0.70
45850;BMP180;10739;52.198;20.908;2024-01-11T12:08:43;100605.00;;;-0.60
45850;BMP180;10739;52.198;20.908;2024-01-11T12:11:12;100604.00;;;-0.50
45850;BMP180;10739;52.198;20.908;2024-01-11T12:13:40;100599.00;;;-0.50
45850;BMP180;10739;52.198;20.908;2024-01-11T12:16:07;100604.00;;;-0.50
45850;BMP180;10739;52.198;20.908;2024-01-11T12:18:34;100601.00;;;-0.80
45850;BMP180;10739;52.198;20.908;2024-01-11T12:21:00;100600.00;;;-0.30
45850;BMP180;10739;52.198;20.908;2024-01-11T12:23:28;100600.00;;;-0.40
45850;BMP180;10739;52.198;20.908;2024-01-11T12:25:57;100592.00;;;-0.50
45850;BMP180;10739;52.198;20.908;2024-01-11T12:28:24;100593.00;;;-0.30
45850;BMP180;10739;52.198;20.908;2024-01-11T12:30:50;100593.00;;;-0.50
45850;BMP180;10739;52.198;20.908;2024-01-11T12:33:18;100599.00;;;-0.60
45850;BMP180;10739;52.198;20.908;2024-01-11T12:35:45;100598.00;;;-0.40
45850;BMP180;10739;52.198;20.908;2024-01-11T12:38:11;100591.00;;;-0.10
45850;BMP180;10739;52.198;20.908;2024-01-11T12:40:38;100594.00;;;-0.20
45850;BMP180;10739;52.198;20.908;2024-01-11T12:43:07;100599.00;;;-0.30
45850;BMP180;10739;52.198;20.908;2024-01-11T12:45:38;100597.00;;;-0.20
45850;BMP180;10739;52.198;20.908;2024-01-11T12:48:07;100597.00;;;-0.20
45850;BMP180;10739;52.198;20.908;2024-01-11T12:50:35;100611.00;;;-0.40
45850;BMP180;10739;52.198;20.908;2024-01-11T12:53:14;100615.00;;;-0.10
45850;BMP180;10739;52.198;20.908;2024-01-11T12:55:48;100612.00;;;-0.20
45850;BMP180;10739;52.198;20.908;2024-01-11T12:58:20;100604.00;;;-0.10
45850;BMP180;10739;52.198;20.908;2024-01-11T13:00:50;100581.00;;;-0.10
45850;BMP180;10739;52.198;20.908;2024-01-11T13:03:16;100581.00;;;0.10
45850;BMP180;10739;52.198;20.908;2024-01-11T13:05:43;100578.00;;;0.10
45850;BMP180;10739;52.198;20.908;2024-01-11T13:08:09;100568.00;;;0.10
45850;BMP180;10739;52.198;20.908;2024-01-11T13:10:37;100571.00;;;0.30
45850;BMP180;10739;52.198;20.908;2024-01-11T13:13:04;100573.00;;;0.30
45850;BMP180;10739;52.198;20.908;2024-01-11T13:15:31;100566.00;;;0.10
45850;BMP180;10739;52.198;20.908;2024-01-11T13:17:59;100575.00;;;0.20
45850;BMP180;10739;52.198;20.908;2024-01-11T13:20:25;100562.00;;;0.60
45850;BMP180;10739;52.198;20.908;2024-01-11T13:23:16;100577.00;;;0.60
45850;BMP180;10739;52.198;20.908;2024-01-11T13:25:47;100580.00;;;0.40
45850;BMP180;10739;52.198;20.908;2024-01-11T13:28:14;100590.00;;;0.50
45850;BMP180;10739;52.198;20.908;2024-01-11T13:30:43;100593.00;;;0.30
45850;BMP180;10739;52.198;20.908;2024-01-11T13:33:11;100583.00;;;0.50
45850;BMP180;10739;52.198;20.908;2024-01-11T13:35:39;100581.00;;;0.40
45850;BMP180;10739;52.198;20.908;2024-01-11T13:38:06;100579.00;;;0.50
45850;BMP180;10739;52.198;20.908;2024-01-11T13:40:33;100581.00;;;0.60
45850;BMP180;10739;52.198;20.908;2024-01-11T13:43:00;100571.00;;;0.60
45850;BMP180;10739;52.198;20.908;2024-01-11T13:45:29;100566.00;;;0.60
45850;BMP180;10739;52.198;20.908;2024-01-11T13:47:59;100564.00;;;0.50
45850;BMP180;10739;52.198;20.908;2024-01-11T13:50:27;100565.00;;;0.50
45850;BMP180;10739;52.198;20.908;2024-01-11T13:52:56;100555.00;;;0.70
45850;BMP180;10739;52.198;20.908;2024-01-11T13:55:24;100556.00;;;1.00